Sampatiki — D5DJ8 — position and weather

sailwx.info

Track history (hours):
 
Tides and Currents Weather Stations Pressure Air Temp Water Temp Dewpoint Dewpoint Depression Visibility Wind Speed Wind Dir Waves Ship Positions

Sampatiki

Last reported at 2017-Nov-20 00:30 UTC. Time now 2017-Nov-20 23:09 UTC.
Position N 37°57' E 023°35'.

Length 100 m; draft 6.5 m.

Type: Ship (hazmat cat A). MMSI: 636015901.

Date/timePositionNaut miles runAvg speedWind from/ knotsBaromVisibWave heightAir tempDewpointWater temp
2017-Nov-20 00:30N 37°57' E 023°35'0 0.0
2017-Nov-20 00:00N 37°57' E 023°35'0 0.0
2017-Nov-19 23:30N 37°57' E 023°35'0 0.0
2017-Nov-19 23:00N 37°57' E 023°35'0 0.0
2017-Nov-19 22:30N 37°57' E 023°35'0 0.0
2017-Nov-19 22:00N 37°57' E 023°35'0 0.0
2017-Nov-19 21:30N 37°57' E 023°35'0 0.0
2017-Nov-19 21:00N 37°57' E 023°35'0 0.0
2017-Nov-19 20:30N 37°57' E 023°35'0 0.0
2017-Nov-19 20:00N 37°57' E 023°35'0 0.0
2017-Nov-19 19:30N 37°57' E 023°35'0 0.0
2017-Nov-19 19:00N 37°57' E 023°35'0 0.0
2017-Nov-19 18:30N 37°57' E 023°35'2 3.0
2017-Nov-19 18:01N 37°56' E 023°36'1 1.4
2017-Nov-19 17:30N 37°55' E 023°37'3 5.3
2017-Nov-19 17:00N 37°53' E 023°38'5 9.9
2017-Nov-19 16:30N 37°49' E 023°41'510.0
2017-Nov-19 16:00N 37°44' E 023°43'5 9.5
2017-Nov-19 15:30N 37°40' E 023°47'308 8.1
2017-Nov-18 01:25N 40°57' E 028°54'4 9.1
2017-Nov-18 00:57N 40°59' E 028°59'  
2017-Nov-15 07:54N 43°52' E 038°41'410.2
2017-Nov-15 07:30N 43°54' E 038°45'510.1
2017-Nov-15 07:00N 43°57' E 038°51'5 9.9
2017-Nov-15 06:30N 44°00' E 038°57'5 9.8
2017-Nov-15 06:00N 44°03' E 039°02'3 6.1
2017-Nov-15 05:30N 44°05' E 039°05'0 0.2
2017-Nov-15 05:00N 44°05' E 039°05'0 0.0
2017-Nov-15 04:30N 44°05' E 039°05'0 0.0
2017-Nov-15 04:00N 44°05' E 039°05'0 0.0
2017-Nov-15 03:30N 44°05' E 039°05'0 0.0
2017-Nov-15 03:00N 44°05' E 039°05'0 0.0
2017-Nov-15 02:30N 44°05' E 039°05'0 0.0
2017-Nov-15 02:00N 44°05' E 039°05'0 0.0
2017-Nov-15 01:30N 44°05' E 039°05'0 0.0
2017-Nov-15 01:00N 44°05' E 039°05'0 0.0
2017-Nov-15 00:30N 44°05' E 039°05'0 0.0
2017-Nov-15 00:00N 44°05' E 039°05'0 0.0
2017-Nov-14 23:30N 44°05' E 039°05'0 0.0
2017-Nov-14 23:00N 44°05' E 039°05'0 0.0
2017-Nov-14 22:30N 44°05' E 039°05'0 0.0
2017-Nov-14 22:00N 44°05' E 039°05'0 0.0
2017-Nov-14 21:30N 44°05' E 039°05'0 0.0
2017-Nov-14 21:00N 44°05' E 039°05'0 0.0
2017-Nov-14 20:30N 44°05' E 039°05'0 0.0
2017-Nov-14 20:00N 44°05' E 039°05'0 0.0
2017-Nov-14 19:30N 44°05' E 039°05'0 0.0
2017-Nov-14 19:00N 44°05' E 039°05'0 0.0
2017-Nov-14 18:30N 44°05' E 039°05'0 0.0
2017-Nov-14 18:00N 44°05' E 039°05'0 0.0
2017-Nov-14 17:30N 44°05' E 039°05'0 0.0
2017-Nov-14 17:00N 44°05' E 039°05'0 0.0
2017-Nov-14 16:30N 44°05' E 039°05'0 0.0
2017-Nov-14 16:00N 44°05' E 039°05'0 0.0
2017-Nov-14 15:30N 44°05' E 039°05'0 0.0
2017-Nov-14 15:00N 44°05' E 039°05'0 0.0
2017-Nov-14 14:30N 44°05' E 039°05'0 0.0
2017-Nov-14 14:00N 44°05' E 039°05'0 0.0
2017-Nov-14 13:30N 44°05' E 039°05'0 0.0
2017-Nov-14 13:00N 44°05' E 039°05'0 0.0
2017-Nov-14 12:30N 44°05' E 039°05'0 0.0
2017-Nov-14 12:00N 44°05' E 039°05'0 0.0
2017-Nov-14 11:30N 44°05' E 039°05'0 0.0
2017-Nov-14 11:00N 44°05' E 039°05'0 0.0
2017-Nov-14 10:30N 44°05' E 039°05'0 0.0
2017-Nov-14 10:00N 44°05' E 039°05'0 0.0
2017-Nov-14 09:30N 44°05' E 039°05'0 0.0
2017-Nov-14 09:00N 44°05' E 039°05'0 0.0
2017-Nov-14 08:30N 44°05' E 039°05'0 0.0
2017-Nov-14 08:00N 44°05' E 039°05'0 0.0
2017-Nov-14 07:30N 44°05' E 039°05'0 0.0
2017-Nov-14 07:00N 44°05' E 039°05'0 0.0
2017-Nov-14 06:30N 44°05' E 039°05'0 0.0
2017-Nov-14 06:00N 44°05' E 039°05'0 0.0
2017-Nov-14 05:30N 44°05' E 039°05'0 0.0
2017-Nov-14 05:00N 44°05' E 039°05'0 0.0
2017-Nov-14 04:30N 44°05' E 039°05'0 0.0
2017-Nov-14 04:00N 44°05' E 039°05'0 0.0
2017-Nov-14 03:30N 44°05' E 039°05'0 0.0
2017-Nov-14 03:00N 44°05' E 039°05'0 0.0
2017-Nov-14 02:30N 44°05' E 039°05'0 0.0
2017-Nov-14 02:00N 44°05' E 039°05'0 0.0
2017-Nov-14 01:30N 44°05' E 039°05'0 0.0
2017-Nov-14 01:00N 44°05' E 039°05'0 0.0
2017-Nov-14 00:30N 44°05' E 039°05'0 0.7
2017-Nov-14 00:01N 44°05' E 039°04'1 2.9
2017-Nov-13 23:30N 44°04' E 039°05'0 0.2
2017-Nov-13 22:58N 44°04' E 039°05'0 0.0
2017-Nov-13 22:28N 44°04' E 039°05'0 0.0
2017-Nov-13 21:58N 44°04' E 039°05'0 0.0
2017-Nov-13 01:58N 44°04' E 039°05'0 0.0
2017-Nov-13 01:28N 44°04' E 039°05'0 0.0
2017-Nov-13 00:58N 44°04' E 039°05'0 0.1
2017-Nov-13 00:28N 44°04' E 039°05'0 0.0
2017-Nov-12 23:58N 44°04' E 039°05'0 0.0
2017-Nov-12 23:28N 44°04' E 039°05'0 0.0
2017-Nov-12 22:58N 44°04' E 039°05'0 0.0
2017-Nov-12 22:28N 44°04' E 039°05'0 0.0
2017-Nov-12 21:58N 44°04' E 039°05'0 0.0
2017-Nov-12 21:28N 44°04' E 039°05'0 0.1
2017-Nov-12 20:58N 44°04' E 039°05'0 0.0
2017-Nov-12 20:28N 44°04' E 039°05'0 0.0
2017-Nov-12 19:58N 44°04' E 039°05'0 0.0
2017-Nov-12 19:28N 44°04' E 039°05'0 0.1
2017-Nov-12 18:58N 44°04' E 039°05'0 0.1
2017-Nov-12 18:28N 44°04' E 039°05'0 0.1
2017-Nov-12 17:58N 44°04' E 039°05'0 0.1
2017-Nov-12 17:28N 44°04' E 039°05'0 0.1
2017-Nov-12 16:58N 44°04' E 039°05'0 0.0
2017-Nov-12 16:28N 44°04' E 039°05'0 0.0
2017-Nov-12 15:58N 44°04' E 039°05'0 0.0
2017-Nov-12 15:28N 44°04' E 039°05'0 0.1
2017-Nov-12 14:58N 44°04' E 039°05'0 0.0
2017-Nov-12 14:28N 44°04' E 039°05'0 0.0
2017-Nov-12 13:58N 44°04' E 039°05'0 0.1
2017-Nov-12 13:28N 44°04' E 039°05'0 0.0
2017-Nov-12 12:58N 44°04' E 039°05'0 0.0
2017-Nov-12 12:28N 44°04' E 039°05'0 0.0
2017-Nov-12 11:58N 44°04' E 039°05'0 0.1
2017-Nov-12 11:28N 44°04' E 039°05'0 0.0
2017-Nov-12 10:58N 44°04' E 039°05'0 0.0
2017-Nov-12 10:28N 44°04' E 039°05'0 0.0
2017-Nov-12 09:58N 44°04' E 039°05'0 0.0
2017-Nov-12 09:28N 44°04' E 039°05'0 0.0
2017-Nov-12 08:58N 44°04' E 039°05'0 0.0
2017-Nov-12 08:28N 44°04' E 039°05'0 0.0
2017-Nov-12 07:58N 44°04' E 039°05'0 0.0
2017-Nov-12 07:28N 44°04' E 039°05'0 0.0
2017-Nov-12 06:58N 44°04' E 039°05'0 0.1
2017-Nov-12 06:28N 44°04' E 039°05'0 0.0
2017-Nov-12 05:58N 44°04' E 039°05'0 0.0
2017-Nov-12 05:28N 44°04' E 039°05'0 0.0
2017-Nov-12 04:58N 44°04' E 039°05'0 0.0
2017-Nov-12 04:28N 44°04' E 039°05'0 0.0
2017-Nov-12 03:58N 44°04' E 039°05'0 0.1
2017-Nov-12 03:28N 44°04' E 039°05'0 0.1
2017-Nov-12 02:58N 44°04' E 039°05'0 0.0
2017-Nov-12 02:28N 44°04' E 039°05'0 0.0
2017-Nov-12 01:58N 44°04' E 039°05'0 0.0
2017-Nov-12 01:28N 44°04' E 039°05'0 0.0
2017-Nov-12 00:58N 44°04' E 039°05'0 0.0
2017-Nov-12 00:28N 44°04' E 039°05'0 0.0
2017-Nov-11 23:58N 44°04' E 039°05'0 0.0
2017-Nov-11 23:28N 44°04' E 039°05'0 0.0
2017-Nov-11 22:58N 44°04' E 039°05'0 0.0
2017-Nov-11 22:28N 44°04' E 039°05'0 0.0
2017-Nov-11 21:58N 44°04' E 039°05'0 0.0
2017-Nov-11 21:28N 44°04' E 039°05'0 0.0
2017-Nov-11 20:58N 44°04' E 039°05'0 0.1
2017-Nov-11 20:28N 44°04' E 039°05'0 0.0
2017-Nov-11 19:58N 44°04' E 039°05'0 0.0
2017-Nov-11 19:28N 44°04' E 039°05'0 0.0
2017-Nov-11 18:58N 44°04' E 039°05'0 0.0
2017-Nov-11 18:28N 44°04' E 039°05'0 0.0
2017-Nov-11 17:58N 44°04' E 039°05'0 0.1
2017-Nov-11 17:28N 44°04' E 039°05'0 0.0
2017-Nov-11 16:58N 44°04' E 039°05'0 0.0
2017-Nov-11 16:25N 44°04' E 039°05'0 0.0
2017-Nov-11 15:58N 44°04' E 039°05'0 0.0
2017-Nov-11 15:28N 44°04' E 039°05'0 0.0
2017-Nov-11 14:58N 44°04' E 039°05'0 0.1
2017-Nov-11 14:28N 44°04' E 039°05'0 0.1
2017-Nov-11 13:58N 44°04' E 039°05'0 0.0
2017-Nov-11 13:28N 44°04' E 039°05'0 0.0
2017-Nov-11 12:58N 44°04' E 039°05'0 0.0
2017-Nov-11 12:28N 44°04' E 039°05'0 0.0
2017-Nov-11 11:58N 44°04' E 039°05'0 0.0
2017-Nov-11 11:28N 44°04' E 039°05'0 0.0
2017-Nov-11 10:58N 44°04' E 039°05'0 0.0
2017-Nov-11 10:28N 44°04' E 039°05'0 0.1
2017-Nov-11 09:58N 44°04' E 039°05'0 0.1
2017-Nov-11 09:28N 44°04' E 039°05'0 0.1
2017-Nov-11 08:58N 44°04' E 039°05'0 0.0
2017-Nov-11 08:28N 44°04' E 039°05'0 0.0
2017-Nov-11 07:58N 44°04' E 039°05'0 0.0
2017-Nov-11 07:28N 44°04' E 039°05'0 0.0
2017-Nov-11 06:58N 44°04' E 039°05'0 0.0
2017-Nov-11 06:28N 44°04' E 039°05'0 0.0
2017-Nov-11 05:58N 44°04' E 039°05'0 0.0
2017-Nov-11 05:28N 44°04' E 039°05'0 0.1
2017-Nov-11 04:58N 44°04' E 039°05'0 0.0
2017-Nov-11 04:28N 44°04' E 039°05'0 0.0
2017-Nov-11 03:58N 44°04' E 039°05'0 0.0
2017-Nov-11 03:28N 44°04' E 039°05'0 0.0
2017-Nov-11 02:58N 44°04' E 039°05'0 0.0
2017-Nov-11 02:28N 44°04' E 039°05'0 0.0
2017-Nov-11 01:58N 44°04' E 039°05'0 0.0
2017-Nov-11 01:28N 44°04' E 039°05'0 0.0
2017-Nov-11 00:58N 44°04' E 039°05'0 0.0
2017-Nov-11 00:28N 44°04' E 039°05'0 0.0
2017-Nov-10 23:58N 44°04' E 039°05'0 0.0
2017-Nov-10 23:28N 44°04' E 039°05'0 0.0
2017-Nov-10 22:58N 44°04' E 039°05'0 0.0
2017-Nov-10 22:28N 44°04' E 039°05'0 0.0
2017-Nov-10 21:58N 44°04' E 039°05'0 0.0
2017-Nov-10 21:28N 44°04' E 039°05'0 0.0
2017-Nov-10 20:58N 44°04' E 039°05'0 0.1
2017-Nov-10 20:28N 44°04' E 039°05'0 0.1
2017-Nov-10 19:58N 44°04' E 039°05'0 0.0
2017-Nov-10 19:28N 44°04' E 039°05'0 0.0
2017-Nov-10 18:58N 44°04' E 039°05'0 0.1
2017-Nov-10 18:28N 44°04' E 039°05'0 0.0
2017-Nov-10 17:58N 44°04' E 039°05'0 0.0
2017-Nov-10 17:28N 44°04' E 039°05'0 0.0
2017-Nov-10 16:58N 44°04' E 039°05'0 0.0
2017-Nov-10 16:28N 44°04' E 039°05'0 0.0
2017-Nov-10 15:58N 44°04' E 039°05'0 0.0
2017-Nov-10 15:28N 44°04' E 039°05'0 0.0
2017-Nov-10 14:58N 44°04' E 039°05'0 0.0
2017-Nov-10 14:28N 44°04' E 039°05'0 0.0
2017-Nov-10 13:58N 44°04' E 039°05'0 0.0
2017-Nov-10 13:28N 44°04' E 039°05'0 0.0
2017-Nov-10 12:58N 44°04' E 039°05'0 0.0
2017-Nov-10 12:28N 44°04' E 039°05'0 0.0
2017-Nov-10 11:58N 44°04' E 039°05'0 0.0
2017-Nov-10 11:28N 44°04' E 039°05'0 0.0
2017-Nov-10 10:58N 44°04' E 039°05'0 0.0
2017-Nov-10 10:25N 44°04' E 039°05'0 0.1
2017-Nov-10 09:58N 44°04' E 039°05'0 0.0
2017-Nov-10 09:28N 44°04' E 039°05'0 0.0
2017-Nov-10 08:58N 44°04' E 039°05'0 0.0
2017-Nov-10 08:28N 44°04' E 039°05'0 0.1
2017-Nov-10 07:58N 44°04' E 039°05'0 0.0
2017-Nov-10 07:28N 44°04' E 039°05'0 0.0
2017-Nov-10 06:58N 44°04' E 039°05'0 0.0
2017-Nov-10 06:28N 44°04' E 039°05'0 0.0
2017-Nov-10 05:58N 44°04' E 039°05'0 0.0
2017-Nov-10 05:28N 44°04' E 039°05'0 0.0
2017-Nov-10 04:58N 44°04' E 039°05'0 0.0
2017-Nov-10 04:28N 44°04' E 039°05'0 0.0
2017-Nov-10 03:58N 44°04' E 039°05'0 0.0
2017-Nov-10 03:28N 44°04' E 039°05'0 0.0
2017-Nov-10 02:58N 44°04' E 039°05'0 0.0
2017-Nov-10 02:28N 44°04' E 039°05'0 0.0
2017-Nov-10 01:58N 44°04' E 039°05'0 0.0
2017-Nov-10 01:28N 44°04' E 039°05'0 0.0
2017-Nov-10 00:58N 44°04' E 039°05'  
Track history (hours):
 
Tides and Currents Weather Stations Pressure Air Temp Water Temp Dewpoint Dewpoint Depression Visibility Wind Speed Wind Dir Waves Ship Positions

Sampatiki

Last reported at 2017-Nov-20 00:30 UTC. Time now 2017-Nov-20 23:09 UTC.
Position N 37°57' E 023°35'.

Length 100 m; draft 6.5 m.

Type: Ship (hazmat cat A). MMSI: 636015901.

Date/timePositionNaut miles runAvg speedWind from/ knotsBaromVisibWave heightAir tempDewpointWater temp
2017-Nov-20 00:30N 37°57' E 023°35'0 0.0
2017-Nov-20 00:00N 37°57' E 023°35'0 0.0
2017-Nov-19 23:30N 37°57' E 023°35'0 0.0
2017-Nov-19 23:00N 37°57' E 023°35'0 0.0
2017-Nov-19 22:30N 37°57' E 023°35'0 0.0
2017-Nov-19 22:00N 37°57' E 023°35'0 0.0
2017-Nov-19 21:30N 37°57' E 023°35'0 0.0
2017-Nov-19 21:00N 37°57' E 023°35'0 0.0
2017-Nov-19 20:30N 37°57' E 023°35'0 0.0
2017-Nov-19 20:00N 37°57' E 023°35'0 0.0
2017-Nov-19 19:30N 37°57' E 023°35'0 0.0
2017-Nov-19 19:00N 37°57' E 023°35'0 0.0
2017-Nov-19 18:30N 37°57' E 023°35'2 3.0
2017-Nov-19 18:01N 37°56' E 023°36'1 1.4
2017-Nov-19 17:30N 37°55' E 023°37'3 5.3
2017-Nov-19 17:00N 37°53' E 023°38'5 9.9
2017-Nov-19 16:30N 37°49' E 023°41'510.0
2017-Nov-19 16:00N 37°44' E 023°43'5 9.5
2017-Nov-19 15:30N 37°40' E 023°47'308 8.1
2017-Nov-18 01:25N 40°57' E 028°54'4 9.1
2017-Nov-18 00:57N 40°59' E 028°59'  
2017-Nov-15 07:54N 43°52' E 038°41'410.2
2017-Nov-15 07:30N 43°54' E 038°45'510.1
2017-Nov-15 07:00N 43°57' E 038°51'5 9.9
2017-Nov-15 06:30N 44°00' E 038°57'5 9.8
2017-Nov-15 06:00N 44°03' E 039°02'3 6.1
2017-Nov-15 05:30N 44°05' E 039°05'0 0.2
2017-Nov-15 05:00N 44°05' E 039°05'0 0.0
2017-Nov-15 04:30N 44°05' E 039°05'0 0.0
2017-Nov-15 04:00N 44°05' E 039°05'0 0.0
2017-Nov-15 03:30N 44°05' E 039°05'0 0.0
2017-Nov-15 03:00N 44°05' E 039°05'0 0.0
2017-Nov-15 02:30N 44°05' E 039°05'0 0.0
2017-Nov-15 02:00N 44°05' E 039°05'0 0.0
2017-Nov-15 01:30N 44°05' E 039°05'0 0.0
2017-Nov-15 01:00N 44°05' E 039°05'0 0.0
2017-Nov-15 00:30N 44°05' E 039°05'0 0.0
2017-Nov-15 00:00N 44°05' E 039°05'0 0.0
2017-Nov-14 23:30N 44°05' E 039°05'0 0.0
2017-Nov-14 23:00N 44°05' E 039°05'0 0.0
2017-Nov-14 22:30N 44°05' E 039°05'0 0.0
2017-Nov-14 22:00N 44°05' E 039°05'0 0.0
2017-Nov-14 21:30N 44°05' E 039°05'0 0.0
2017-Nov-14 21:00N 44°05' E 039°05'0 0.0
2017-Nov-14 20:30N 44°05' E 039°05'0 0.0
2017-Nov-14 20:00N 44°05' E 039°05'0 0.0
2017-Nov-14 19:30N 44°05' E 039°05'0 0.0
2017-Nov-14 19:00N 44°05' E 039°05'0 0.0
2017-Nov-14 18:30N 44°05' E 039°05'0 0.0
2017-Nov-14 18:00N 44°05' E 039°05'0 0.0
2017-Nov-14 17:30N 44°05' E 039°05'0 0.0
2017-Nov-14 17:00N 44°05' E 039°05'0 0.0
2017-Nov-14 16:30N 44°05' E 039°05'0 0.0
2017-Nov-14 16:00N 44°05' E 039°05'0 0.0
2017-Nov-14 15:30N 44°05' E 039°05'0 0.0
2017-Nov-14 15:00N 44°05' E 039°05'0 0.0
2017-Nov-14 14:30N 44°05' E 039°05'0 0.0
2017-Nov-14 14:00N 44°05' E 039°05'0 0.0
2017-Nov-14 13:30N 44°05' E 039°05'0 0.0
2017-Nov-14 13:00N 44°05' E 039°05'0 0.0
2017-Nov-14 12:30N 44°05' E 039°05'0 0.0
2017-Nov-14 12:00N 44°05' E 039°05'0 0.0
2017-Nov-14 11:30N 44°05' E 039°05'0 0.0
2017-Nov-14 11:00N 44°05' E 039°05'0 0.0
2017-Nov-14 10:30N 44°05' E 039°05'0 0.0
2017-Nov-14 10:00N 44°05' E 039°05'0 0.0
2017-Nov-14 09:30N 44°05' E 039°05'0 0.0
2017-Nov-14 09:00N 44°05' E 039°05'0 0.0
2017-Nov-14 08:30N 44°05' E 039°05'0 0.0
2017-Nov-14 08:00N 44°05' E 039°05'0 0.0
2017-Nov-14 07:30N 44°05' E 039°05'0 0.0
2017-Nov-14 07:00N 44°05' E 039°05'0 0.0
2017-Nov-14 06:30N 44°05' E 039°05'0 0.0
2017-Nov-14 06:00N 44°05' E 039°05'0 0.0
2017-Nov-14 05:30N 44°05' E 039°05'0 0.0
2017-Nov-14 05:00N 44°05' E 039°05'0 0.0
2017-Nov-14 04:30N 44°05' E 039°05'0 0.0
2017-Nov-14 04:00N 44°05' E 039°05'0 0.0
2017-Nov-14 03:30N 44°05' E 039°05'0 0.0
2017-Nov-14 03:00N 44°05' E 039°05'0 0.0
2017-Nov-14 02:30N 44°05' E 039°05'0 0.0
2017-Nov-14 02:00N 44°05' E 039°05'0 0.0
2017-Nov-14 01:30N 44°05' E 039°05'0 0.0
2017-Nov-14 01:00N 44°05' E 039°05'0 0.0
2017-Nov-14 00:30N 44°05' E 039°05'0 0.7
2017-Nov-14 00:01N 44°05' E 039°04'1 2.9
2017-Nov-13 23:30N 44°04' E 039°05'0 0.2
2017-Nov-13 22:58N 44°04' E 039°05'0 0.0
2017-Nov-13 22:28N 44°04' E 039°05'0 0.0
2017-Nov-13 21:58N 44°04' E 039°05'0 0.0
2017-Nov-13 01:58N 44°04' E 039°05'0 0.0
2017-Nov-13 01:28N 44°04' E 039°05'0 0.0
2017-Nov-13 00:58N 44°04' E 039°05'0 0.1
2017-Nov-13 00:28N 44°04' E 039°05'0 0.0
2017-Nov-12 23:58N 44°04' E 039°05'0 0.0
2017-Nov-12 23:28N 44°04' E 039°05'0 0.0
2017-Nov-12 22:58N 44°04' E 039°05'0 0.0
2017-Nov-12 22:28N 44°04' E 039°05'0 0.0
2017-Nov-12 21:58N 44°04' E 039°05'0 0.0
2017-Nov-12 21:28N 44°04' E 039°05'0 0.1
2017-Nov-12 20:58N 44°04' E 039°05'0 0.0
2017-Nov-12 20:28N 44°04' E 039°05'0 0.0
2017-Nov-12 19:58N 44°04' E 039°05'0 0.0
2017-Nov-12 19:28N 44°04' E 039°05'0 0.1
2017-Nov-12 18:58N 44°04' E 039°05'0 0.1
2017-Nov-12 18:28N 44°04' E 039°05'0 0.1
2017-Nov-12 17:58N 44°04' E 039°05'0 0.1
2017-Nov-12 17:28N 44°04' E 039°05'0 0.1
2017-Nov-12 16:58N 44°04' E 039°05'0 0.0
2017-Nov-12 16:28N 44°04' E 039°05'0 0.0
2017-Nov-12 15:58N 44°04' E 039°05'0 0.0
2017-Nov-12 15:28N 44°04' E 039°05'0 0.1
2017-Nov-12 14:58N 44°04' E 039°05'0 0.0
2017-Nov-12 14:28N 44°04' E 039°05'0 0.0
2017-Nov-12 13:58N 44°04' E 039°05'0 0.1
2017-Nov-12 13:28N 44°04' E 039°05'0 0.0
2017-Nov-12 12:58N 44°04' E 039°05'0 0.0
2017-Nov-12 12:28N 44°04' E 039°05'0 0.0
2017-Nov-12 11:58N 44°04' E 039°05'0 0.1
2017-Nov-12 11:28N 44°04' E 039°05'0 0.0
2017-Nov-12 10:58N 44°04' E 039°05'0 0.0
2017-Nov-12 10:28N 44°04' E 039°05'0 0.0
2017-Nov-12 09:58N 44°04' E 039°05'0 0.0
2017-Nov-12 09:28N 44°04' E 039°05'0 0.0
2017-Nov-12 08:58N 44°04' E 039°05'0 0.0
2017-Nov-12 08:28N 44°04' E 039°05'0 0.0
2017-Nov-12 07:58N 44°04' E 039°05'0 0.0
2017-Nov-12 07:28N 44°04' E 039°05'0 0.0
2017-Nov-12 06:58N 44°04' E 039°05'0 0.1
2017-Nov-12 06:28N 44°04' E 039°05'0 0.0
2017-Nov-12 05:58N 44°04' E 039°05'0 0.0
2017-Nov-12 05:28N 44°04' E 039°05'0 0.0
2017-Nov-12 04:58N 44°04' E 039°05'0 0.0
2017-Nov-12 04:28N 44°04' E 039°05'0 0.0
2017-Nov-12 03:58N 44°04' E 039°05'0 0.1
2017-Nov-12 03:28N 44°04' E 039°05'0 0.1
2017-Nov-12 02:58N 44°04' E 039°05'0 0.0
2017-Nov-12 02:28N 44°04' E 039°05'0 0.0
2017-Nov-12 01:58N 44°04' E 039°05'0 0.0
2017-Nov-12 01:28N 44°04' E 039°05'0 0.0
2017-Nov-12 00:58N 44°04' E 039°05'0 0.0
2017-Nov-12 00:28N 44°04' E 039°05'0 0.0
2017-Nov-11 23:58N 44°04' E 039°05'0 0.0
2017-Nov-11 23:28N 44°04' E 039°05'0 0.0
2017-Nov-11 22:58N 44°04' E 039°05'0 0.0
2017-Nov-11 22:28N 44°04' E 039°05'0 0.0
2017-Nov-11 21:58N 44°04' E 039°05'0 0.0
2017-Nov-11 21:28N 44°04' E 039°05'0 0.0
2017-Nov-11 20:58N 44°04' E 039°05'0 0.1
2017-Nov-11 20:28N 44°04' E 039°05'0 0.0
2017-Nov-11 19:58N 44°04' E 039°05'0 0.0
2017-Nov-11 19:28N 44°04' E 039°05'0 0.0
2017-Nov-11 18:58N 44°04' E 039°05'0 0.0
2017-Nov-11 18:28N 44°04' E 039°05'0 0.0
2017-Nov-11 17:58N 44°04' E 039°05'0 0.1
2017-Nov-11 17:28N 44°04' E 039°05'0 0.0
2017-Nov-11 16:58N 44°04' E 039°05'0 0.0
2017-Nov-11 16:25N 44°04' E 039°05'0 0.0
2017-Nov-11 15:58N 44°04' E 039°05'0 0.0
2017-Nov-11 15:28N 44°04' E 039°05'0 0.0
2017-Nov-11 14:58N 44°04' E 039°05'0 0.1
2017-Nov-11 14:28N 44°04' E 039°05'0 0.1
2017-Nov-11 13:58N 44°04' E 039°05'0 0.0
2017-Nov-11 13:28N 44°04' E 039°05'0 0.0
2017-Nov-11 12:58N 44°04' E 039°05'0 0.0
2017-Nov-11 12:28N 44°04' E 039°05'0 0.0
2017-Nov-11 11:58N 44°04' E 039°05'0 0.0
2017-Nov-11 11:28N 44°04' E 039°05'0 0.0
2017-Nov-11 10:58N 44°04' E 039°05'0 0.0
2017-Nov-11 10:28N 44°04' E 039°05'0 0.1
2017-Nov-11 09:58N 44°04' E 039°05'0 0.1
2017-Nov-11 09:28N 44°04' E 039°05'0 0.1
2017-Nov-11 08:58N 44°04' E 039°05'0 0.0
2017-Nov-11 08:28N 44°04' E 039°05'0 0.0
2017-Nov-11 07:58N 44°04' E 039°05'0 0.0
2017-Nov-11 07:28N 44°04' E 039°05'0 0.0
2017-Nov-11 06:58N 44°04' E 039°05'0 0.0
2017-Nov-11 06:28N 44°04' E 039°05'0 0.0
2017-Nov-11 05:58N 44°04' E 039°05'0 0.0
2017-Nov-11 05:28N 44°04' E 039°05'0 0.1
2017-Nov-11 04:58N 44°04' E 039°05'0 0.0
2017-Nov-11 04:28N 44°04' E 039°05'0 0.0
2017-Nov-11 03:58N 44°04' E 039°05'0 0.0
2017-Nov-11 03:28N 44°04' E 039°05'0 0.0
2017-Nov-11 02:58N 44°04' E 039°05'0 0.0
2017-Nov-11 02:28N 44°04' E 039°05'0 0.0
2017-Nov-11 01:58N 44°04' E 039°05'0 0.0
2017-Nov-11 01:28N 44°04' E 039°05'0 0.0
2017-Nov-11 00:58N 44°04' E 039°05'0 0.0
2017-Nov-11 00:28N 44°04' E 039°05'0 0.0
2017-Nov-10 23:58N 44°04' E 039°05'0 0.0
2017-Nov-10 23:28N 44°04' E 039°05'0 0.0
2017-Nov-10 22:58N 44°04' E 039°05'0 0.0
2017-Nov-10 22:28N 44°04' E 039°05'0 0.0
2017-Nov-10 21:58N 44°04' E 039°05'0 0.0
2017-Nov-10 21:28N 44°04' E 039°05'0 0.0
2017-Nov-10 20:58N 44°04' E 039°05'0 0.1
2017-Nov-10 20:28N 44°04' E 039°05'0 0.1
2017-Nov-10 19:58N 44°04' E 039°05'0 0.0
2017-Nov-10 19:28N 44°04' E 039°05'0 0.0
2017-Nov-10 18:58N 44°04' E 039°05'0 0.1
2017-Nov-10 18:28N 44°04' E 039°05'0 0.0
2017-Nov-10 17:58N 44°04' E 039°05'0 0.0
2017-Nov-10 17:28N 44°04' E 039°05'0 0.0
2017-Nov-10 16:58N 44°04' E 039°05'0 0.0
2017-Nov-10 16:28N 44°04' E 039°05'0 0.0
2017-Nov-10 15:58N 44°04' E 039°05'0 0.0
2017-Nov-10 15:28N 44°04' E 039°05'0 0.0
2017-Nov-10 14:58N 44°04' E 039°05'0 0.0
2017-Nov-10 14:28N 44°04' E 039°05'0 0.0
2017-Nov-10 13:58N 44°04' E 039°05'0 0.0
2017-Nov-10 13:28N 44°04' E 039°05'0 0.0
2017-Nov-10 12:58N 44°04' E 039°05'0 0.0
2017-Nov-10 12:28N 44°04' E 039°05'0 0.0
2017-Nov-10 11:58N 44°04' E 039°05'0 0.0
2017-Nov-10 11:28N 44°04' E 039°05'0 0.0
2017-Nov-10 10:58N 44°04' E 039°05'0 0.0
2017-Nov-10 10:25N 44°04' E 039°05'0 0.1
2017-Nov-10 09:58N 44°04' E 039°05'0 0.0
2017-Nov-10 09:28N 44°04' E 039°05'0 0.0
2017-Nov-10 08:58N 44°04' E 039°05'0 0.0
2017-Nov-10 08:28N 44°04' E 039°05'0 0.1
2017-Nov-10 07:58N 44°04' E 039°05'0 0.0
2017-Nov-10 07:28N 44°04' E 039°05'0 0.0
2017-Nov-10 06:58N 44°04' E 039°05'0 0.0
2017-Nov-10 06:28N 44°04' E 039°05'0 0.0
2017-Nov-10 05:58N 44°04' E 039°05'0 0.0
2017-Nov-10 05:28N 44°04' E 039°05'0 0.0
2017-Nov-10 04:58N 44°04' E 039°05'0 0.0
2017-Nov-10 04:28N 44°04' E 039°05'0 0.0
2017-Nov-10 03:58N 44°04' E 039°05'0 0.0
2017-Nov-10 03:28N 44°04' E 039°05'0 0.0
2017-Nov-10 02:58N 44°04' E 039°05'0 0.0
2017-Nov-10 02:28N 44°04' E 039°05'0 0.0
2017-Nov-10 01:58N 44°04' E 039°05'0 0.0
2017-Nov-10 01:28N 44°04' E 039°05'0 0.0
2017-Nov-10 00:58N 44°04' E 039°05'  

Dump ship's entire track history